createdAt,value
2023-01-06T00:01:32.703Z,8.82
2023-01-06T00:03:59.667Z,11.80
2023-01-06T00:06:28.304Z,11.95
2023-01-06T00:09:01.269Z,11.15
2023-01-06T00:11:28.427Z,10.38
2023-01-06T00:13:56.321Z,13.32
2023-01-06T00:16:23.845Z,8.77
2023-01-06T00:18:55.428Z,10.50
2023-01-06T00:21:24.148Z,13.32
2023-01-06T00:23:50.874Z,10.05
2023-01-06T00:26:17.773Z,10.25
2023-01-06T00:28:46.696Z,9.25
2023-01-06T00:33:42.566Z,8.57
2023-01-06T00:36:11.199Z,9.70
2023-01-06T00:38:38.921Z,10.43
2023-01-06T00:41:30.787Z,8.32
2023-01-06T00:43:58.555Z,8.50
2023-01-06T00:46:28.895Z,10.82
2023-01-06T00:49:06.679Z,8.43
2023-01-06T00:51:36.939Z,10.48
2023-01-06T00:54:05.256Z,7.03
2023-01-06T00:56:32.257Z,6.10
2023-01-06T00:58:58.968Z,6.15
2023-01-06T01:01:25.948Z,8.43
2023-01-06T01:06:19.347Z,8.15
2023-01-06T01:08:46.098Z,9.73
2023-01-06T01:11:36.640Z,7.05
2023-01-06T01:14:03.604Z,9.65
2023-01-06T01:18:57.547Z,12.50
2023-01-06T01:23:51.863Z,12.10
2023-01-06T01:26:19.287Z,15.60
2023-01-06T01:28:46.171Z,10.60
2023-01-06T01:31:15.824Z,10.55
2023-01-06T01:33:43.530Z,12.45
2023-01-06T01:36:12.913Z,7.68
2023-01-06T01:38:40.101Z,10.80
2023-01-06T01:41:07.177Z,11.15
2023-01-06T01:43:49.522Z,8.93
2023-01-06T01:46:27.519Z,8.40
2023-01-06T01:48:58.140Z,10.55
2023-01-06T01:51:30.192Z,9.15
2023-01-06T01:53:59.651Z,9.43
2023-01-06T01:56:32.244Z,14.00
2023-01-06T01:59:04.451Z,10.85
2023-01-06T02:01:31.790Z,9.82
2023-01-06T02:04:00.343Z,10.80
2023-01-06T02:06:30.282Z,9.95
2023-01-06T02:09:01.789Z,9.43
2023-01-06T02:11:31.805Z,11.55
2023-01-06T02:14:17.079Z,12.05
2023-01-06T02:16:54.776Z,12.95
2023-01-06T02:19:38.210Z,15.70
2023-01-06T02:22:36.558Z,14.63
2023-01-06T02:25:30.727Z,9.87
2023-01-06T02:28:31.156Z,13.15
2023-01-06T02:31:00.707Z,21.83
2023-01-06T02:33:46.808Z,11.85
2023-01-06T02:36:19.719Z,12.25
2023-01-06T02:39:15.996Z,18.63
2023-01-06T02:41:54.135Z,11.25
2023-01-06T02:46:57.008Z,14.43
2023-01-06T02:49:38.764Z,12.90
2023-01-06T02:52:24.485Z,18.52
2023-01-06T02:54:54.304Z,13.25
2023-01-06T02:57:29.049Z,13.63
2023-01-06T03:00:11.837Z,13.23
2023-01-06T03:02:42.155Z,13.73
2023-01-06T03:05:14.018Z,15.70
2023-01-06T03:07:44.063Z,12.45
2023-01-06T03:10:13.281Z,11.70
2023-01-06T03:12:56.759Z,10.48
2023-01-06T03:15:25.078Z,11.02
2023-01-06T03:17:52.472Z,11.20
2023-01-06T03:20:20.341Z,12.88
2023-01-06T03:22:47.184Z,12.25
2023-01-06T03:25:14.594Z,11.15
2023-01-06T03:27:42.977Z,15.73
2023-01-06T03:32:43.432Z,10.75
2023-01-06T03:35:28.700Z,12.65
2023-01-06T03:38:17.462Z,14.10
2023-01-06T03:40:54.809Z,11.73
2023-01-06T03:43:28.266Z,10.38
2023-01-06T03:46:19.619Z,9.43
2023-01-06T03:49:08.478Z,13.27
2023-01-06T03:52:10.073Z,11.30
2023-01-06T03:54:47.481Z,11.48
2023-01-06T03:57:25.382Z,13.95
2023-01-06T04:00:19.370Z,12.45
2023-01-06T04:02:54.276Z,11.73
2023-01-06T04:05:26.449Z,10.10
2023-01-06T04:07:53.975Z,10.55
2023-01-06T04:10:23.035Z,10.63
2023-01-06T04:12:53.609Z,10.95
2023-01-06T04:15:26.971Z,14.57
2023-01-06T04:17:55.509Z,10.82
2023-01-06T04:20:26.620Z,9.60
2023-01-06T04:22:59.613Z,9.18
2023-01-06T04:25:32.184Z,7.03
2023-01-06T04:28:05.632Z,10.50
2023-01-06T04:30:32.536Z,9.77
2023-01-06T04:32:59.273Z,7.38
2023-01-06T04:35:26.109Z,7.70
2023-01-06T04:37:52.868Z,8.00
2023-01-06T04:40:19.866Z,8.20
2023-01-06T04:45:32.625Z,6.13
2023-01-06T04:47:59.354Z,6.60
2023-01-06T04:50:26.142Z,7.97
2023-01-06T04:52:52.966Z,7.10
2023-01-06T04:55:19.775Z,6.38
2023-01-06T04:57:46.464Z,8.50
2023-01-06T05:00:13.725Z,6.72
2023-01-06T05:02:40.458Z,6.72
2023-01-06T05:05:07.641Z,8.18
2023-01-06T05:07:34.498Z,9.35
2023-01-06T05:10:01.331Z,6.82
2023-01-06T05:12:28.161Z,4.93
2023-01-06T05:14:54.886Z,6.07
2023-01-06T05:17:21.613Z,5.13
2023-01-06T05:19:48.351Z,6.50
2023-01-06T05:22:15.233Z,4.30
2023-01-06T05:27:23.327Z,3.55
2023-01-06T05:29:50.172Z,3.90
2023-01-06T05:32:16.940Z,3.35
2023-01-06T05:34:43.617Z,4.00
2023-01-06T05:37:10.331Z,3.47
2023-01-06T05:39:37.052Z,2.95
2023-01-06T05:42:03.905Z,2.55
2023-01-06T05:44:30.573Z,3.35
2023-01-06T05:46:57.252Z,3.20
2023-01-06T05:49:23.940Z,3.70
2023-01-06T05:51:50.662Z,3.05
2023-01-06T05:54:17.476Z,2.25
2023-01-06T05:56:44.204Z,2.47
2023-01-06T05:59:11.064Z,2.47
2023-01-06T06:01:37.940Z,3.78
2023-01-06T06:04:04.932Z,3.75
2023-01-06T06:08:59.050Z,3.03
2023-01-06T06:11:25.849Z,2.53
2023-01-06T06:13:54.968Z,3.90
2023-01-06T06:16:25.147Z,2.92
2023-01-06T06:18:56.894Z,3.50
2023-01-06T06:21:26.674Z,1.70
2023-01-06T06:23:54.549Z,2.90
2023-01-06T06:26:21.368Z,2.50
2023-01-06T06:28:48.363Z,4.45
2023-01-06T06:31:18.464Z,2.47
2023-01-06T06:33:45.197Z,1.98
2023-01-06T06:36:15.690Z,1.35
2023-01-06T06:38:44.137Z,2.42
2023-01-06T06:41:11.231Z,2.45
2023-01-06T06:43:38.831Z,2.08
2023-01-06T06:46:07.011Z,1.50
2023-01-06T06:48:34.079Z,2.63
2023-01-06T06:53:28.929Z,2.38
2023-01-06T06:58:23.186Z,2.47
2023-01-06T07:00:50.125Z,1.13
2023-01-06T07:03:17.182Z,1.23
2023-01-06T07:05:45.808Z,4.78
2023-01-06T07:08:13.489Z,1.95
2023-01-06T07:10:40.493Z,2.03
2023-01-06T07:13:07.797Z,1.63
2023-01-06T07:15:34.637Z,2.25
2023-01-06T07:18:05.267Z,1.27
2023-01-06T07:20:33.857Z,1.05
2023-01-06T07:23:00.636Z,0.73
2023-01-06T07:25:27.600Z,2.00
2023-01-06T07:30:22.765Z,0.75
2023-01-06T07:32:51.393Z,0.75
2023-01-06T07:35:18.598Z,1.38
2023-01-06T07:37:45.900Z,2.85
2023-01-06T07:40:13.659Z,2.42
2023-01-06T07:42:40.642Z,1.88
2023-01-06T07:47:34.678Z,2.20
2023-01-06T07:50:01.678Z,2.17
2023-01-06T07:54:59.313Z,1.38
2023-01-06T07:57:27.048Z,0.95
2023-01-06T07:59:53.872Z,1.20
2023-01-06T08:02:20.815Z,1.55
2023-01-06T08:07:15.777Z,1.40
2023-01-06T08:09:42.702Z,2.17
2023-01-06T08:14:36.278Z,1.80
2023-01-06T08:17:03.106Z,1.38
2023-01-06T08:19:29.948Z,1.17
2023-01-06T08:21:56.679Z,2.35
2023-01-06T08:24:23.352Z,2.13
2023-01-06T08:26:50.099Z,1.95
2023-01-06T08:29:16.796Z,2.17
2023-01-06T08:31:43.572Z,1.95
2023-01-06T08:34:11.510Z,3.22
2023-01-06T08:36:38.737Z,2.22
2023-01-06T08:39:05.448Z,1.50
2023-01-06T08:41:32.193Z,2.70
2023-01-06T08:43:58.870Z,1.42
2023-01-06T08:46:26.623Z,1.50
2023-01-06T08:48:55.456Z,1.65
2023-01-06T08:51:23.718Z,1.88
2023-01-06T08:53:51.919Z,5.28
2023-01-06T08:56:23.232Z,2.35
2023-01-06T08:58:59.131Z,3.28
2023-01-06T09:01:29.194Z,2.13
2023-01-06T09:03:57.463Z,4.38
2023-01-06T09:06:24.247Z,3.80
2023-01-06T09:08:51.461Z,2.97
2023-01-06T09:11:18.277Z,2.00
2023-01-06T09:13:45.878Z,2.90
2023-01-06T09:16:13.629Z,1.45
2023-01-06T09:18:40.935Z,2.17
2023-01-06T09:21:07.752Z,1.60
2023-01-06T09:23:34.437Z,3.33
2023-01-06T09:26:01.229Z,2.47
2023-01-06T09:28:27.915Z,2.17
2023-01-06T09:30:54.701Z,3.92
2023-01-06T09:33:21.454Z,2.88
2023-01-06T09:35:48.344Z,3.92
2023-01-06T09:38:15.519Z,2.30
2023-01-06T09:40:44.960Z,2.53
2023-01-06T09:43:47.804Z,2.72
2023-01-06T09:46:18.978Z,3.60
2023-01-06T09:49:08.555Z,4.38
2023-01-06T09:51:36.524Z,5.28
2023-01-06T09:54:12.909Z,2.80
2023-01-06T09:56:43.817Z,1.65
2023-01-06T09:59:51.503Z,2.63
2023-01-06T10:02:32.446Z,3.47
2023-01-06T10:04:59.379Z,4.70
2023-01-06T10:10:11.760Z,3.30
2023-01-06T10:12:53.583Z,1.65
2023-01-06T10:15:35.356Z,2.20
2023-01-06T10:18:32.533Z,1.35
2023-01-06T10:21:25.601Z,3.90
2023-01-06T10:24:07.613Z,1.83
2023-01-06T10:26:45.267Z,1.77
2023-01-06T10:29:19.466Z,1.23
2023-01-06T10:31:49.036Z,2.63
2023-01-06T10:34:23.835Z,1.73
2023-01-06T10:37:02.647Z,1.90
2023-01-06T10:39:30.198Z,1.02
2023-01-06T10:42:30.420Z,2.40
2023-01-06T10:44:57.143Z,2.13
2023-01-06T10:47:34.555Z,1.23
2023-01-06T10:50:01.719Z,2.35
2023-01-06T10:52:30.152Z,1.65
2023-01-06T10:55:02.780Z,4.70
2023-01-06T10:57:35.741Z,0.77
2023-01-06T11:00:14.220Z,2.08
2023-01-06T11:02:52.471Z,1.17
2023-01-06T11:05:25.142Z,1.38
2023-01-06T11:07:56.368Z,1.50
2023-01-06T11:10:34.781Z,1.52
2023-01-06T11:13:03.520Z,1.98
2023-01-06T11:15:41.001Z,1.20
2023-01-06T11:21:13.309Z,1.75
2023-01-06T11:23:42.521Z,1.08
2023-01-06T11:26:12.281Z,4.30
2023-01-06T11:28:40.282Z,2.45
2023-01-06T11:31:19.266Z,1.92
2023-01-06T11:34:01.767Z,2.45
2023-01-06T11:36:33.651Z,1.50
2023-01-06T11:39:13.233Z,2.03
2023-01-06T11:41:43.948Z,2.45
2023-01-06T11:44:18.670Z,3.05
2023-01-06T11:46:57.009Z,3.38
2023-01-06T11:49:46.332Z,2.08
2023-01-06T11:52:23.093Z,1.70
2023-01-06T11:55:05.316Z,2.33
2023-01-06T11:57:47.251Z,2.40
2023-01-06T12:00:47.175Z,1.92
2023-01-06T12:03:21.431Z,3.15
2023-01-06T12:05:48.269Z,1.95
2023-01-06T12:08:20.051Z,2.53
2023-01-06T12:10:53.484Z,2.03
2023-01-06T12:13:20.880Z,1.50
2023-01-06T12:16:02.803Z,1.23
2023-01-06T12:18:35.428Z,1.40
2023-01-06T12:21:04.377Z,3.85
2023-01-06T12:23:40.853Z,0.77
2023-01-06T12:26:19.554Z,1.17
2023-01-06T12:28:48.648Z,2.35
2023-01-06T12:31:27.663Z,1.67
2023-01-06T12:34:16.372Z,1.83
2023-01-06T12:36:58.779Z,1.98
2023-01-06T12:39:36.715Z,0.77
2023-01-06T12:42:15.624Z,1.42
2023-01-06T12:44:50.883Z,5.47
2023-01-06T12:47:27.764Z,1.92
2023-01-06T12:50:15.716Z,1.40
2023-01-06T12:53:07.177Z,1.55
2023-01-06T12:56:03.947Z,4.28
2023-01-06T12:58:53.824Z,4.55
2023-01-06T13:01:30.097Z,1.38
2023-01-06T13:04:09.177Z,1.92
2023-01-06T13:07:07.757Z,1.55
2023-01-06T13:10:01.551Z,8.40
2023-01-06T13:13:06.451Z,2.33
2023-01-06T13:15:36.830Z,0.93
2023-01-06T13:18:10.754Z,3.40
2023-01-06T13:20:43.834Z,1.60
2023-01-06T13:23:45.019Z,0.85
2023-01-06T13:26:42.487Z,3.58
2023-01-06T13:29:31.539Z,1.88
2023-01-06T13:32:00.981Z,0.98
2023-01-06T13:34:47.979Z,0.93
2023-01-06T13:37:41.000Z,1.13
2023-01-06T13:40:18.506Z,0.77
2023-01-06T13:45:19.856Z,1.20
2023-01-06T13:47:48.208Z,2.63
2023-01-06T13:50:17.511Z,1.15
2023-01-06T13:52:45.189Z,2.15
2023-01-06T13:55:30.621Z,0.82
2023-01-06T13:58:17.866Z,2.50
2023-01-06T14:00:44.738Z,1.25
2023-01-06T14:05:45.391Z,1.35
2023-01-06T14:08:18.802Z,1.58
2023-01-06T14:10:48.509Z,0.57
2023-01-06T14:13:29.411Z,2.47
2023-01-06T14:16:04.351Z,2.25
2023-01-06T14:18:31.516Z,1.38
2023-01-06T14:21:12.593Z,0.95
2023-01-06T14:23:51.508Z,0.43
2023-01-06T14:26:18.878Z,1.33
2023-01-06T14:28:45.704Z,3.08
2023-01-06T14:31:24.634Z,1.52
2023-01-06T14:33:57.336Z,2.30
2023-01-06T14:36:26.435Z,1.70
2023-01-06T14:38:58.244Z,1.20
2023-01-06T14:41:48.421Z,0.90
2023-01-06T14:44:24.463Z,0.98
2023-01-06T14:46:53.995Z,1.67
2023-01-06T14:49:26.224Z,4.93
2023-01-06T14:51:55.664Z,1.10
2023-01-06T14:54:37.427Z,2.05
2023-01-06T14:57:05.821Z,1.75
2023-01-06T14:59:32.807Z,0.57
2023-01-06T15:02:03.813Z,5.80
2023-01-06T15:04:33.861Z,2.55
2023-01-06T15:07:21.097Z,2.25
2023-01-06T15:09:50.013Z,1.83
2023-01-06T15:12:33.167Z,3.22
2023-01-06T15:15:30.769Z,1.52
2023-01-06T15:17:59.763Z,2.67
2023-01-06T15:20:41.019Z,2.95
2023-01-06T15:23:08.453Z,2.05
2023-01-06T15:25:37.684Z,2.80
2023-01-06T15:28:04.555Z,4.22
2023-01-06T15:33:03.545Z,3.03
2023-01-06T15:35:32.818Z,3.28
2023-01-06T15:38:20.187Z,2.40
2023-01-06T15:40:46.963Z,2.70
2023-01-06T15:43:17.506Z,2.70
2023-01-06T15:45:56.072Z,2.58
2023-01-06T15:48:29.674Z,1.55
2023-01-06T15:50:57.031Z,1.55
2023-01-06T15:53:32.495Z,1.55
2023-01-06T15:56:01.214Z,1.23
2023-01-06T15:58:33.108Z,4.13
2023-01-06T16:01:11.756Z,2.50
2023-01-06T16:03:39.457Z,2.72
2023-01-06T16:06:11.760Z,1.30
2023-01-06T16:08:39.395Z,2.25
2023-01-06T16:11:41.176Z,2.05
2023-01-06T16:14:38.777Z,3.15
2023-01-06T16:17:11.833Z,1.45
2023-01-06T16:19:59.732Z,1.25
2023-01-06T16:22:49.173Z,2.40
2023-01-06T16:25:34.984Z,1.40
2023-01-06T16:28:05.446Z,0.90
2023-01-06T16:30:33.832Z,1.73
2023-01-06T16:33:00.971Z,1.58
2023-01-06T16:35:30.387Z,1.00
2023-01-06T16:37:57.509Z,0.98
2023-01-06T16:40:26.528Z,1.73
2023-01-06T16:43:01.806Z,3.33
2023-01-06T16:45:37.909Z,1.10
2023-01-06T16:48:04.960Z,2.33
2023-01-06T16:50:39.216Z,2.17
2023-01-06T16:53:18.299Z,2.42
2023-01-06T16:55:52.641Z,1.83
2023-01-06T16:58:25.215Z,2.70
2023-01-06T17:00:54.476Z,3.30
2023-01-06T17:03:28.733Z,1.55
2023-01-06T17:05:55.973Z,1.80
2023-01-06T17:08:29.614Z,3.83
2023-01-06T17:10:58.837Z,1.60
2023-01-06T17:13:35.972Z,3.67
2023-01-06T17:16:16.677Z,5.13
2023-01-06T17:19:02.315Z,2.67
2023-01-06T17:21:29.045Z,2.60
2023-01-06T17:24:14.359Z,1.73
2023-01-06T17:26:52.088Z,1.92
2023-01-06T17:29:20.747Z,1.77
2023-01-06T17:31:51.673Z,1.98
2023-01-06T17:34:31.717Z,1.95
2023-01-06T17:37:06.487Z,2.40
2023-01-06T17:39:38.916Z,2.45
2023-01-06T17:42:26.011Z,1.70
2023-01-06T17:44:57.257Z,2.67
2023-01-06T17:47:46.437Z,2.42
2023-01-06T17:50:31.470Z,1.15
2023-01-06T17:53:48.289Z,1.60
2023-01-06T17:56:15.366Z,1.13
2023-01-06T17:58:44.119Z,2.65
2023-01-06T18:01:20.009Z,1.48
2023-01-06T18:03:47.622Z,2.38
2023-01-06T18:06:20.368Z,2.30
2023-01-06T18:08:48.824Z,1.75
2023-01-06T18:11:48.654Z,2.35
2023-01-06T18:14:22.436Z,2.15
2023-01-06T18:16:52.157Z,2.80
2023-01-06T18:19:29.317Z,2.08
2023-01-06T18:21:56.059Z,1.85
2023-01-06T18:24:29.488Z,2.10
2023-01-06T18:27:03.794Z,2.33
2023-01-06T18:29:36.968Z,3.70
2023-01-06T18:32:22.575Z,2.60
2023-01-06T18:34:57.788Z,2.30
2023-01-06T18:37:30.482Z,2.42
2023-01-06T18:40:26.290Z,1.75
2023-01-06T18:42:54.558Z,1.60
2023-01-06T18:45:29.073Z,2.42
2023-01-06T18:48:18.226Z,2.80
2023-01-06T18:50:46.532Z,2.47
2023-01-06T18:53:13.169Z,4.68
2023-01-06T18:55:54.801Z,4.13
2023-01-06T18:58:47.488Z,1.98
2023-01-06T19:01:21.855Z,3.38
2023-01-06T19:04:07.359Z,4.25
2023-01-06T19:06:38.170Z,2.25
2023-01-06T19:09:24.085Z,2.20
2023-01-06T19:11:58.673Z,2.05
2023-01-06T19:14:25.740Z,2.33
2023-01-06T19:16:57.203Z,2.45
2023-01-06T19:19:41.227Z,1.92
2023-01-06T19:22:19.446Z,2.28
2023-01-06T19:24:50.161Z,1.95
2023-01-06T19:27:19.956Z,2.25
2023-01-06T19:29:46.695Z,2.55
2023-01-06T19:32:15.152Z,2.85
2023-01-06T19:34:41.911Z,2.85
2023-01-06T19:37:18.306Z,2.60
2023-01-06T19:39:50.816Z,3.47
2023-01-06T19:42:29.600Z,3.70
2023-01-06T19:45:08.802Z,3.38
2023-01-06T19:47:40.941Z,2.47
2023-01-06T19:50:22.884Z,2.58
2023-01-06T19:52:58.265Z,2.92
2023-01-06T19:55:30.454Z,3.55
2023-01-06T19:58:00.660Z,2.35
2023-01-06T20:00:45.710Z,2.88
2023-01-06T20:03:23.110Z,2.47
2023-01-06T20:05:49.764Z,2.33
2023-01-06T20:08:16.520Z,2.83
2023-01-06T20:10:43.214Z,2.58
2023-01-06T20:13:09.905Z,3.28
2023-01-06T20:15:36.672Z,2.83
2023-01-06T20:18:03.440Z,2.60
2023-01-06T20:20:30.240Z,3.95
2023-01-06T20:22:56.965Z,3.55
2023-01-06T20:25:23.709Z,4.97
2023-01-06T20:27:50.523Z,2.92
2023-01-06T20:30:17.489Z,3.67
2023-01-06T20:35:12.005Z,3.88
2023-01-06T20:37:39.562Z,3.17
2023-01-06T20:40:07.160Z,3.30
2023-01-06T20:42:33.874Z,3.83
2023-01-06T20:45:00.614Z,2.90
2023-01-06T20:47:27.310Z,3.28
2023-01-06T20:49:54.109Z,3.22
2023-01-06T20:52:20.916Z,4.65
2023-01-06T20:54:47.658Z,3.00
2023-01-06T20:57:14.414Z,6.35
2023-01-06T20:59:41.090Z,3.70
2023-01-06T21:02:08.392Z,2.78
2023-01-06T21:04:36.301Z,9.00
2023-01-06T21:07:03.178Z,3.05
2023-01-06T21:09:30.420Z,2.88
2023-01-06T21:11:57.237Z,3.28
2023-01-06T21:14:24.263Z,3.78
2023-01-06T21:19:17.941Z,5.80
2023-01-06T21:24:11.282Z,2.97
2023-01-06T21:26:38.030Z,2.75
2023-01-06T21:29:05.099Z,3.75
2023-01-06T21:31:31.957Z,2.60
2023-01-06T21:33:58.721Z,3.05
2023-01-06T21:36:25.481Z,2.75
2023-01-06T21:38:52.150Z,3.40
2023-01-06T21:41:37.472Z,4.22
2023-01-06T21:44:04.359Z,3.80
2023-01-06T21:46:32.204Z,3.47
2023-01-06T21:48:58.971Z,3.08
2023-01-06T21:51:26.789Z,3.33
2023-01-06T21:53:53.826Z,3.47
2023-01-06T21:56:20.591Z,6.13
2023-01-06T21:58:47.428Z,4.18
2023-01-06T22:01:14.347Z,3.95
2023-01-06T22:06:08.517Z,5.40
2023-01-06T22:08:35.379Z,5.80
2023-01-06T22:11:02.471Z,5.18
2023-01-06T22:15:56.796Z,3.60
2023-01-06T22:18:24.024Z,3.08
2023-01-06T22:20:51.249Z,3.33
2023-01-06T22:23:20.798Z,3.40
2023-01-06T22:25:47.654Z,2.75
2023-01-06T22:28:14.414Z,2.95
2023-01-06T22:30:41.178Z,4.10
2023-01-06T22:33:08.010Z,2.92
2023-01-06T22:35:34.861Z,3.33
2023-01-06T22:38:02.051Z,2.65
2023-01-06T22:40:28.939Z,2.97
2023-01-06T22:45:23.833Z,3.03
2023-01-06T22:50:17.411Z,2.17
2023-01-06T22:52:44.200Z,3.03
2023-01-06T22:55:10.928Z,3.35
2023-01-06T22:57:37.704Z,3.00
2023-01-06T23:00:12.069Z,3.10
2023-01-06T23:02:39.092Z,2.65
2023-01-06T23:05:06.476Z,3.10
2023-01-06T23:07:38.912Z,2.03
2023-01-06T23:10:06.492Z,4.13
2023-01-06T23:12:39.144Z,3.28
2023-01-06T23:15:08.721Z,3.83
2023-01-06T23:17:38.606Z,3.17
2023-01-06T23:20:06.033Z,3.20
2023-01-06T23:22:32.829Z,3.50
2023-01-06T23:24:59.977Z,3.17
2023-01-06T23:27:26.721Z,5.03
2023-01-06T23:29:53.440Z,2.50
2023-01-06T23:32:20.352Z,2.47
2023-01-06T23:37:14.518Z,2.20
2023-01-06T23:39:41.319Z,3.92
2023-01-06T23:42:08.188Z,2.78
2023-01-06T23:44:34.896Z,3.22
2023-01-06T23:47:01.588Z,3.80
2023-01-06T23:49:28.348Z,3.25
2023-01-06T23:51:55.175Z,4.78
2023-01-06T23:54:21.920Z,2.97
2023-01-06T23:56:48.628Z,2.90
2023-01-06T23:59:15.499Z,4.35
